createdAt,value
2017-08-22T03:14:15.139Z,5.20
2017-08-22T03:16:43.445Z,5.00
2017-08-22T03:19:13.176Z,5.60
2017-08-22T03:21:41.584Z,5.83
2017-08-22T03:24:09.871Z,5.63
2017-08-22T03:26:38.575Z,5.00
2017-08-22T03:29:07.615Z,4.10
2017-08-22T03:31:35.944Z,5.03
2017-08-22T03:34:04.317Z,5.63
2017-08-22T03:36:32.595Z,5.40
2017-08-22T03:39:01.276Z,4.20
2017-08-22T03:41:29.909Z,4.60
2017-08-22T03:43:58.235Z,5.17
2017-08-22T03:46:26.617Z,5.27
2017-08-22T03:48:54.938Z,5.03
2017-08-22T03:51:23.725Z,5.97
2017-08-22T03:53:52.007Z,5.10
2017-08-22T03:56:20.330Z,6.10
2017-08-22T03:58:49.132Z,5.63
2017-08-22T04:01:17.415Z,6.07
2017-08-22T04:03:46.046Z,6.77
2017-08-22T04:06:14.329Z,5.60
2017-08-22T04:08:42.755Z,5.67
2017-08-22T04:11:11.085Z,5.53
2017-08-22T04:13:39.373Z,5.67
2017-08-22T04:16:07.952Z,6.97
2017-08-22T04:18:36.247Z,6.50
2017-08-22T04:21:04.553Z,7.70
2017-08-22T04:23:33.413Z,6.87
2017-08-22T04:26:01.801Z,7.67
2017-08-22T04:28:30.470Z,7.70
2017-08-22T04:30:59.297Z,6.93
2017-08-22T04:33:28.340Z,7.00
2017-08-22T04:35:56.665Z,5.50
2017-08-22T04:38:25.741Z,5.83
2017-08-22T04:40:54.373Z,6.87
2017-08-22T04:43:22.678Z,6.80
2017-08-22T04:45:50.999Z,5.40
2017-08-22T04:48:19.280Z,6.70
2017-08-22T04:50:47.586Z,6.13
2017-08-22T04:53:16.171Z,7.10
2017-08-22T04:55:44.441Z,5.10
2017-08-22T04:58:14.018Z,6.47
2017-08-22T05:00:43.016Z,5.70
2017-08-22T05:03:11.333Z,5.90
2017-08-22T05:05:39.917Z,5.93
2017-08-22T05:08:08.228Z,5.90
2017-08-22T05:10:37.121Z,5.90
2017-08-22T05:13:05.814Z,5.80
2017-08-22T05:15:34.093Z,6.20
2017-08-22T05:18:02.375Z,5.70
2017-08-22T05:20:31.060Z,5.53
2017-08-22T05:22:59.908Z,5.97
2017-08-22T05:25:28.580Z,5.70
2017-08-22T05:27:57.634Z,4.63
2017-08-22T05:30:26.020Z,5.60
2017-08-22T05:32:54.333Z,4.60
2017-08-22T05:35:22.697Z,6.03
2017-08-22T05:37:51.346Z,4.53
2017-08-22T05:40:20.444Z,5.30
2017-08-22T05:42:49.003Z,4.10
2017-08-22T05:45:17.330Z,5.50
2017-08-22T05:47:46.395Z,3.63
2017-08-22T05:50:15.007Z,4.70
2017-08-22T05:52:44.582Z,6.70
2017-08-22T05:55:13.265Z,4.33
2017-08-22T05:57:42.121Z,4.23
2017-08-22T06:00:10.416Z,4.10
2017-08-22T06:02:38.705Z,4.27
2017-08-22T06:05:07.378Z,4.20
2017-08-22T06:07:35.666Z,4.80
2017-08-22T06:10:05.381Z,4.00
2017-08-22T06:12:33.670Z,4.63
2017-08-22T06:15:02.752Z,3.73
2017-08-22T06:17:31.429Z,3.70
2017-08-22T06:19:59.746Z,3.27
2017-08-22T06:22:28.816Z,3.30
2017-08-22T06:24:57.103Z,3.40
2017-08-22T06:27:25.632Z,3.40
2017-08-22T06:29:55.034Z,3.87
2017-08-22T06:32:23.333Z,3.37
2017-08-22T06:34:51.623Z,3.90
2017-08-22T06:37:20.427Z,4.10
2017-08-22T06:39:48.729Z,2.90
2017-08-22T06:42:17.289Z,3.03
2017-08-22T06:44:45.580Z,3.20
2017-08-22T06:47:16.015Z,3.60
2017-08-22T06:49:44.327Z,3.20
2017-08-22T06:52:12.978Z,2.90
2017-08-22T06:54:41.590Z,3.23
2017-08-22T06:57:09.877Z,3.63
2017-08-22T06:59:38.257Z,3.07
2017-08-22T07:02:06.613Z,3.17
2017-08-22T07:04:34.895Z,3.97
2017-08-22T07:07:04.269Z,3.17
2017-08-22T07:09:34.286Z,3.00
2017-08-22T07:12:02.553Z,2.90
2017-08-22T07:14:31.216Z,3.70
2017-08-22T07:16:59.518Z,2.50
2017-08-22T07:19:27.818Z,2.33
2017-08-22T07:21:56.883Z,3.77
2017-08-22T07:24:25.179Z,2.50
2017-08-22T07:26:53.866Z,2.60
2017-08-22T07:29:22.549Z,2.50
2017-08-22T07:31:50.831Z,2.50
2017-08-22T07:34:20.474Z,2.80
2017-08-22T07:36:50.042Z,1.90
2017-08-22T07:39:20.113Z,1.83
2017-08-22T07:41:49.629Z,2.62
2017-08-22T07:44:19.187Z,2.60
2017-08-22T07:46:49.458Z,2.70
2017-08-22T07:49:19.561Z,2.87
2017-08-22T07:51:49.374Z,1.80
2017-08-22T07:54:19.449Z,2.20
2017-08-22T07:56:49.321Z,2.80
2017-08-22T07:59:18.850Z,2.73
2017-08-22T08:01:48.423Z,2.40
2017-08-22T08:04:17.932Z,2.50
2017-08-22T08:06:47.544Z,1.65
2017-08-22T08:09:17.336Z,2.63
2017-08-22T08:11:47.332Z,1.80
2017-08-22T08:14:17.200Z,1.97
2017-08-22T08:16:46.862Z,2.72
2017-08-22T08:19:18.020Z,2.17
2017-08-22T08:21:47.557Z,2.17
2017-08-22T08:24:17.566Z,2.80
2017-08-22T08:26:47.420Z,2.10
2017-08-22T08:29:17.419Z,2.20
2017-08-22T08:31:47.199Z,1.83
2017-08-22T08:34:16.689Z,2.30
2017-08-22T08:36:46.271Z,1.90
2017-08-22T08:39:16.085Z,2.10
2017-08-22T08:41:46.301Z,2.33
2017-08-22T08:44:16.329Z,2.50
2017-08-22T08:46:45.838Z,3.00
2017-08-22T08:49:15.660Z,2.43
2017-08-22T08:51:45.146Z,2.00
2017-08-22T08:54:14.647Z,2.27
2017-08-22T08:56:44.498Z,2.63
2017-08-22T08:59:14.006Z,3.20
2017-08-22T09:01:43.531Z,2.80
2017-08-22T09:04:13.397Z,2.43
2017-08-22T09:06:42.949Z,2.25
2017-08-22T09:09:12.471Z,3.37
2017-08-22T09:11:41.994Z,1.90
2017-08-22T09:14:11.515Z,1.93
2017-08-22T09:16:42.352Z,2.10
2017-08-22T09:19:15.400Z,2.47
2017-08-22T09:21:45.195Z,2.37
2017-08-22T09:24:14.669Z,2.83
2017-08-22T09:26:44.208Z,2.00
2017-08-22T09:29:13.727Z,2.70
2017-08-22T09:31:43.690Z,3.20
2017-08-22T09:34:13.469Z,3.20
2017-08-22T09:36:43.068Z,2.00
2017-08-22T09:39:12.590Z,1.80
2017-08-22T09:41:42.277Z,1.83
2017-08-22T09:44:11.812Z,2.27
2017-08-22T09:46:41.652Z,2.20
2017-08-22T09:49:11.249Z,3.67
2017-08-22T09:51:40.736Z,2.43
2017-08-22T09:54:10.869Z,2.10
2017-08-22T09:56:41.313Z,2.40
2017-08-22T09:59:11.132Z,1.63
2017-08-22T10:01:40.686Z,2.40
2017-08-22T10:04:10.191Z,2.60
2017-08-22T10:06:39.737Z,2.13
2017-08-22T10:09:09.251Z,1.63
2017-08-22T10:11:39.138Z,1.70
2017-08-22T10:14:08.653Z,1.90
2017-08-22T10:16:38.308Z,1.80
2017-08-22T10:19:06.654Z,1.87
2017-08-22T10:21:34.936Z,1.80
2017-08-22T10:24:03.521Z,1.73
2017-08-22T10:26:33.182Z,2.10
2017-08-22T10:29:03.313Z,1.57
2017-08-22T10:31:31.503Z,2.03
2017-08-22T10:33:59.813Z,1.80
2017-08-22T10:36:28.743Z,2.45
2017-08-22T10:38:57.037Z,2.20
2017-08-22T10:44:02.805Z,1.73
2017-08-22T10:46:31.106Z,1.70
2017-08-22T10:48:59.800Z,1.83
2017-08-22T10:51:29.450Z,2.10
2017-08-22T10:53:59.044Z,1.60
2017-08-22T10:56:29.028Z,1.57
2017-08-22T10:58:58.526Z,1.50
2017-08-22T11:01:28.358Z,1.87
2017-08-22T11:03:57.970Z,2.00
2017-08-22T11:06:27.475Z,3.13
2017-08-22T11:08:56.990Z,1.80
2017-08-22T11:11:26.779Z,2.10
2017-08-22T11:13:56.628Z,1.50
2017-08-22T11:16:24.801Z,2.57
2017-08-22T11:18:53.972Z,1.50
2017-08-22T11:21:22.288Z,1.67
2017-08-22T11:23:50.564Z,2.23
2017-08-22T11:26:19.555Z,3.23
2017-08-22T11:28:47.850Z,2.20
2017-08-22T11:31:16.896Z,1.80
2017-08-22T11:33:45.608Z,2.20
2017-08-22T11:36:13.899Z,2.20
2017-08-22T11:38:42.492Z,1.90
2017-08-22T11:41:10.775Z,2.33
2017-08-22T11:43:39.084Z,24.03
2017-08-22T11:46:07.447Z,6.73
2017-08-22T11:48:35.752Z,1.40
2017-08-22T11:51:04.415Z,1.50
2017-08-22T11:53:33.011Z,1.90
2017-08-22T11:56:02.633Z,1.98
2017-08-22T11:58:32.037Z,1.90
2017-08-22T12:01:00.380Z,2.10
2017-08-22T12:03:28.667Z,1.67
2017-08-22T12:05:56.998Z,1.97
2017-08-22T12:08:25.331Z,2.93
2017-08-22T12:10:54.860Z,2.07
2017-08-22T12:13:24.352Z,2.00
2017-08-22T12:15:52.660Z,2.17
2017-08-22T12:18:21.218Z,2.20
2017-08-22T12:20:49.539Z,2.30
2017-08-22T12:23:18.526Z,1.93
2017-08-22T12:25:46.859Z,2.30
2017-08-22T12:28:15.255Z,2.37
2017-08-22T12:30:43.897Z,2.20
2017-08-22T12:33:12.594Z,1.53
2017-08-22T12:35:40.957Z,2.00
2017-08-22T12:38:10.839Z,1.63
2017-08-22T12:40:39.444Z,1.60
2017-08-22T12:43:08.072Z,1.80
2017-08-22T12:45:36.962Z,1.30
2017-08-22T12:48:06.002Z,1.93
2017-08-22T12:50:34.659Z,1.90
2017-08-22T12:53:03.012Z,1.90
2017-08-22T12:55:32.282Z,2.07
2017-08-22T12:58:01.382Z,2.73
2017-08-22T13:00:32.854Z,4.20
2017-08-22T13:03:01.442Z,2.10
2017-08-22T13:05:30.680Z,1.50
2017-08-22T13:07:59.038Z,1.47
2017-08-22T13:10:28.704Z,2.00
2017-08-22T13:12:58.244Z,2.20
2017-08-22T13:15:28.249Z,2.00
2017-08-22T13:17:56.557Z,2.07
2017-08-22T13:20:26.218Z,1.20
2017-08-22T13:22:54.658Z,1.47
2017-08-22T13:25:22.965Z,1.67
2017-08-22T13:27:51.777Z,1.80
2017-08-22T13:30:20.111Z,1.47
2017-08-22T13:32:48.369Z,1.43
2017-08-22T13:35:16.996Z,1.80
2017-08-22T13:37:45.343Z,1.52
2017-08-22T13:40:13.636Z,2.70
2017-08-22T13:42:42.993Z,1.70
2017-08-22T13:45:11.306Z,1.87
2017-08-22T13:47:39.636Z,1.43
2017-08-22T13:50:08.867Z,1.70
2017-08-22T13:52:37.159Z,1.40
2017-08-22T13:55:05.466Z,10.90
2017-08-22T13:57:34.140Z,1.43
2017-08-22T14:00:02.482Z,1.27
2017-08-22T14:02:30.783Z,1.87
2017-08-22T14:04:59.863Z,1.30
2017-08-22T14:07:28.966Z,1.83
2017-08-22T14:09:58.879Z,1.47
2017-08-22T14:12:27.051Z,1.20
2017-08-22T14:14:55.335Z,1.57
2017-08-22T14:17:23.913Z,1.10
2017-08-22T14:19:52.595Z,1.30
2017-08-22T14:22:21.584Z,1.23
2017-08-22T14:24:51.120Z,1.30
2017-08-22T14:27:19.399Z,1.40
2017-08-22T14:29:47.714Z,1.63
2017-08-22T14:32:17.156Z,1.60
2017-08-22T14:34:45.480Z,1.40
2017-08-22T14:37:47.223Z,1.27
2017-08-22T14:40:16.720Z,1.57
2017-08-22T14:42:45.110Z,1.53
2017-08-22T14:45:13.457Z,1.50
2017-08-22T14:47:41.765Z,1.50
2017-08-22T14:50:10.382Z,1.50
2017-08-22T14:52:39.823Z,1.60
2017-08-22T14:55:08.135Z,1.50
2017-08-22T14:57:37.869Z,1.60
2017-08-22T15:00:06.174Z,1.40
2017-08-22T15:02:34.620Z,1.53
2017-08-22T15:05:02.948Z,2.07
2017-08-22T15:07:31.292Z,1.50
2017-08-22T15:09:59.901Z,1.43
2017-08-22T15:12:28.181Z,2.13
2017-08-22T15:17:33.954Z,1.57
2017-08-22T15:20:02.533Z,2.03
2017-08-22T15:22:31.128Z,1.43
2017-08-22T15:25:00.655Z,1.50
2017-08-22T15:27:29.159Z,1.73
2017-08-22T15:29:57.717Z,1.47
2017-08-22T15:32:26.009Z,1.50
2017-08-22T15:34:55.064Z,1.67
2017-08-22T15:37:23.648Z,1.50
2017-08-22T15:39:51.964Z,1.60
2017-08-22T15:42:20.254Z,1.60
2017-08-22T15:44:48.856Z,1.60
2017-08-22T15:47:17.160Z,1.70
2017-08-22T15:49:45.490Z,1.60
2017-08-22T15:52:16.586Z,1.70
2017-08-22T15:54:45.168Z,1.80
2017-08-22T15:57:13.463Z,1.50
2017-08-22T15:59:42.528Z,1.50
2017-08-22T16:02:11.719Z,1.70
2017-08-22T16:04:40.063Z,1.70
2017-08-22T16:07:08.676Z,1.83
2017-08-22T16:09:37.071Z,1.57
2017-08-22T16:12:05.402Z,1.50
2017-08-22T16:14:34.147Z,1.47
2017-08-22T16:17:02.451Z,1.60
2017-08-22T16:19:30.851Z,1.47
2017-08-22T16:21:59.490Z,1.83
2017-08-22T16:24:27.829Z,2.20
2017-08-22T16:26:56.110Z,2.00
2017-08-22T16:29:25.180Z,2.00
2017-08-22T16:31:53.501Z,1.67
2017-08-22T16:34:22.128Z,3.13
2017-08-22T16:36:50.579Z,1.87
2017-08-22T16:39:18.892Z,2.00
2017-08-22T16:41:47.481Z,2.67
2017-08-22T16:44:15.753Z,2.50
2017-08-22T16:46:44.148Z,2.00
2017-08-22T16:49:12.752Z,2.03
2017-08-22T16:51:41.390Z,2.50
2017-08-22T16:54:09.671Z,2.07
2017-08-22T16:56:38.340Z,2.10
2017-08-22T16:59:07.216Z,2.33
2017-08-22T17:01:35.510Z,2.13
2017-08-22T17:04:04.159Z,1.70
2017-08-22T17:06:32.462Z,2.13
2017-08-22T17:09:00.765Z,2.10
2017-08-22T17:11:29.326Z,1.77
2017-08-22T17:13:57.647Z,2.20
2017-08-22T17:16:25.931Z,1.87
2017-08-22T17:18:54.625Z,1.67
2017-08-22T17:21:23.372Z,2.20
2017-08-22T17:23:51.661Z,1.67
2017-08-22T17:26:20.625Z,2.10
2017-08-22T17:28:48.891Z,2.40
2017-08-22T17:31:17.547Z,1.70
2017-08-22T17:33:45.825Z,2.00
2017-08-22T17:36:14.901Z,2.20
2017-08-22T17:38:43.601Z,3.77
2017-08-22T17:41:11.927Z,1.70
2017-08-22T17:43:40.870Z,2.07
2017-08-22T17:46:10.379Z,2.00
2017-08-22T17:48:39.021Z,2.07
2017-08-22T17:51:07.362Z,2.27
2017-08-22T17:53:36.025Z,1.77
2017-08-22T17:56:04.373Z,2.20
2017-08-22T17:58:32.767Z,1.50
2017-08-22T18:01:01.387Z,1.60
2017-08-22T18:03:30.412Z,2.60
2017-08-22T18:05:58.778Z,2.57
2017-08-22T18:08:27.917Z,2.53
2017-08-22T18:10:56.221Z,2.10
2017-08-22T18:13:24.533Z,2.20
2017-08-22T18:15:52.837Z,2.83
2017-08-22T18:18:21.221Z,2.10
2017-08-22T18:20:49.795Z,2.20
2017-08-22T18:23:18.074Z,2.43
2017-08-22T18:25:46.350Z,2.20
2017-08-22T18:28:15.673Z,2.37
2017-08-22T18:30:43.970Z,2.30
2017-08-22T18:33:13.063Z,2.43
2017-08-22T18:35:42.656Z,2.40
2017-08-22T18:38:10.958Z,2.93
2017-08-22T18:40:40.051Z,2.43
2017-08-22T18:43:08.724Z,2.63
2017-08-22T18:45:37.370Z,2.00
2017-08-22T18:48:05.673Z,2.77
2017-08-22T18:50:34.309Z,3.00
2017-08-22T18:53:02.605Z,2.83
2017-08-22T18:55:30.938Z,2.83
2017-08-22T18:57:59.253Z,2.73
2017-08-22T19:00:27.564Z,2.50
2017-08-22T19:02:56.219Z,3.10
2017-08-22T19:05:24.538Z,3.40
2017-08-22T19:07:52.806Z,3.50
2017-08-22T19:10:23.034Z,3.70
2017-08-22T19:12:51.355Z,5.00
2017-08-22T19:15:19.652Z,3.37
2017-08-22T19:17:48.578Z,3.47
2017-08-22T19:20:17.417Z,3.17
2017-08-22T19:22:47.509Z,3.90
2017-08-22T19:25:15.812Z,4.10
2017-08-22T19:27:44.128Z,3.00
2017-08-22T19:30:12.521Z,3.27
2017-08-22T19:32:41.656Z,3.50
2017-08-22T19:35:10.280Z,4.03
2017-08-22T19:37:38.573Z,4.37
2017-08-22T19:40:06.852Z,4.27
2017-08-22T19:42:35.187Z,3.53
2017-08-22T19:45:04.402Z,3.50
2017-08-22T19:47:33.568Z,3.80
2017-08-22T19:50:01.861Z,3.70
2017-08-22T19:52:30.145Z,3.63
2017-08-22T19:54:58.489Z,4.23
2017-08-22T19:57:27.250Z,3.83
2017-08-22T19:59:55.895Z,3.93
2017-08-22T20:02:24.179Z,3.93
2017-08-22T20:04:52.492Z,3.70
2017-08-22T20:07:21.122Z,5.00
2017-08-22T20:09:49.465Z,4.30
2017-08-22T20:12:19.444Z,4.83
2017-08-22T20:14:47.741Z,5.33
2017-08-22T20:17:18.472Z,4.60
2017-08-22T20:19:47.055Z,4.40
2017-08-22T20:22:15.384Z,5.07
2017-08-22T20:24:44.505Z,3.73
2017-08-22T20:27:12.831Z,4.90
2017-08-22T20:29:42.105Z,4.87
2017-08-22T20:32:10.701Z,4.50
2017-08-22T20:34:39.692Z,5.57
2017-08-22T20:37:08.408Z,7.00
2017-08-22T20:39:36.800Z,7.07
2017-08-22T20:42:05.093Z,6.93
2017-08-22T20:44:33.727Z,6.33
2017-08-22T20:47:02.037Z,6.60
2017-08-22T20:49:30.334Z,4.87
2017-08-22T20:51:58.998Z,5.70
2017-08-22T20:54:27.313Z,6.27
2017-08-22T20:56:55.625Z,6.00
2017-08-22T20:59:24.214Z,6.73
2017-08-22T21:01:52.999Z,5.77
2017-08-22T21:04:21.285Z,5.83
2017-08-22T21:06:49.919Z,7.13
2017-08-22T21:09:18.218Z,5.90
2017-08-22T21:11:46.467Z,6.07
2017-08-22T21:14:15.066Z,6.60
2017-08-22T21:16:43.357Z,7.20
2017-08-22T21:19:13.874Z,5.47
2017-08-22T21:21:42.163Z,5.33
2017-08-22T21:24:10.749Z,6.40
2017-08-22T21:26:39.341Z,5.00
2017-08-22T21:29:07.638Z,5.90
2017-08-22T21:31:35.928Z,7.13
2017-08-22T21:34:04.250Z,6.27
2017-08-22T21:36:32.547Z,6.37
2017-08-22T21:39:01.175Z,5.90
2017-08-22T21:41:29.505Z,6.10
2017-08-22T21:43:57.744Z,5.27
2017-08-22T21:46:26.077Z,6.47
2017-08-22T21:48:54.379Z,5.63
2017-08-22T21:51:22.954Z,6.40
2017-08-22T21:53:51.268Z,6.10
2017-08-22T21:56:19.548Z,6.53
2017-08-22T21:58:48.216Z,5.37
2017-08-22T22:01:16.672Z,5.00
2017-08-22T22:03:44.980Z,4.63
2017-08-22T22:06:13.272Z,5.50
2017-08-22T22:08:42.086Z,5.30
2017-08-22T22:11:10.787Z,5.80
2017-08-22T22:13:39.072Z,5.93
2017-08-22T22:16:07.921Z,5.60
2017-08-22T22:18:36.221Z,5.53
2017-08-22T22:21:05.131Z,5.07
2017-08-22T22:23:33.711Z,6.30
2017-08-22T22:26:02.006Z,6.57
2017-08-22T22:28:30.420Z,5.83
2017-08-22T22:30:59.043Z,5.50
2017-08-22T22:33:27.351Z,6.20
2017-08-22T22:35:55.642Z,6.53
2017-08-22T22:38:23.947Z,6.10
2017-08-22T22:40:52.231Z,5.47
2017-08-22T22:43:20.863Z,5.13
2017-08-22T22:45:49.171Z,5.47
2017-08-22T22:48:17.517Z,5.17
2017-08-22T22:50:45.836Z,6.13
2017-08-22T22:53:14.232Z,5.00
2017-08-22T22:55:43.593Z,5.80
2017-08-22T22:58:11.881Z,5.33
2017-08-22T23:00:40.195Z,4.63
2017-08-22T23:03:08.532Z,6.57
2017-08-22T23:05:36.807Z,5.10
2017-08-22T23:08:05.718Z,5.90
2017-08-22T23:10:34.123Z,5.30
2017-08-22T23:13:03.124Z,6.50
2017-08-22T23:15:31.684Z,5.73
2017-08-22T23:18:00.669Z,6.00
2017-08-22T23:20:29.049Z,6.80
2017-08-22T23:22:57.362Z,6.73
2017-08-22T23:25:25.648Z,5.77
2017-08-22T23:27:54.208Z,5.90
2017-08-22T23:30:22.736Z,6.00
2017-08-22T23:32:51.006Z,7.97
2017-08-22T23:35:19.325Z,6.90
2017-08-22T23:37:48.383Z,6.70
2017-08-22T23:40:16.971Z,6.57
2017-08-22T23:42:50.926Z,6.53
2017-08-22T23:45:19.509Z,7.20
2017-08-22T23:47:47.834Z,6.83
2017-08-22T23:50:17.081Z,6.97
2017-08-22T23:52:45.486Z,7.40
2017-08-22T23:55:13.764Z,7.13
2017-08-22T23:57:42.353Z,5.70
